sensor_id;sensor_type;location;lat;lon;timestamp;temperature;humidity
3548;DHT22;1788;49.400;11.092;2022-09-09T00:10:41;17.30;60.70
3548;DHT22;1788;49.400;11.092;2022-09-09T00:27:49;17.30;60.80
3548;DHT22;1788;49.400;11.092;2022-09-09T00:32:42;17.30;61.60
3548;DHT22;1788;49.400;11.092;2022-09-09T00:37:35;17.30;60.90
3548;DHT22;1788;49.400;11.092;2022-09-09T00:42:33;17.30;60.90
3548;DHT22;1788;49.400;11.092;2022-09-09T01:02:08;17.20;60.50
3548;DHT22;1788;49.400;11.092;2022-09-09T01:04:33;17.20;61.00
3548;DHT22;1788;49.400;11.092;2022-09-09T01:07:02;17.20;60.90
3548;DHT22;1788;49.400;11.092;2022-09-09T01:16:46;17.00;60.90
3548;DHT22;1788;49.400;11.092;2022-09-09T01:19:17;17.00;60.80
3548;DHT22;1788;49.400;11.092;2022-09-09T01:26:34;16.90;61.60
3548;DHT22;1788;49.400;11.092;2022-09-09T01:29:00;16.80;61.60
3548;DHT22;1788;49.400;11.092;2022-09-09T01:31:29;16.80;61.90
3548;DHT22;1788;49.400;11.092;2022-09-09T01:33:54;16.80;61.90
3548;DHT22;1788;49.400;11.092;2022-09-09T01:38:48;16.80;61.90
3548;DHT22;1788;49.400;11.092;2022-09-09T01:41:15;16.80;61.90
3548;DHT22;1788;49.400;11.092;2022-09-09T01:43:41;16.90;62.00
3548;DHT22;1788;49.400;11.092;2022-09-09T01:46:08;16.80;61.90
3548;DHT22;1788;49.400;11.092;2022-09-09T01:48:35;16.80;62.00
3548;DHT22;1788;49.400;11.092;2022-09-09T01:51:02;16.80;62.00
3548;DHT22;1788;49.400;11.092;2022-09-09T01:53:29;16.80;62.00
3548;DHT22;1788;49.400;11.092;2022-09-09T01:56:00;16.80;62.00
3548;DHT22;1788;49.400;11.092;2022-09-09T02:00:52;16.80;62.20
3548;DHT22;1788;49.400;11.092;2022-09-09T02:05:45;16.80;62.30
3548;DHT22;1788;49.400;11.092;2022-09-09T02:08:11;16.80;62.30
3548;DHT22;1788;49.400;11.092;2022-09-09T02:10:40;16.80;62.40
3548;DHT22;1788;49.400;11.092;2022-09-09T02:13:04;16.80;62.40
3548;DHT22;1788;49.400;11.092;2022-09-09T02:15:32;16.80;62.40
3548;DHT22;1788;49.400;11.092;2022-09-09T02:17:57;16.80;62.50
3548;DHT22;1788;49.400;11.092;2022-09-09T02:20:24;16.80;62.50
3548;DHT22;1788;49.400;11.092;2022-09-09T02:22:51;16.80;62.70
3548;DHT22;1788;49.400;11.092;2022-09-09T02:25:18;16.80;62.70
3548;DHT22;1788;49.400;11.092;2022-09-09T02:27:45;16.70;63.30
3548;DHT22;1788;49.400;11.092;2022-09-09T02:30:11;16.70;62.70
3548;DHT22;1788;49.400;11.092;2022-09-09T02:32:38;16.70;62.70
3548;DHT22;1788;49.400;11.092;2022-09-09T02:39:58;16.70;63.20
3548;DHT22;1788;49.400;11.092;2022-09-09T02:42:24;16.60;63.20
3548;DHT22;1788;49.400;11.092;2022-09-09T02:44:51;16.60;63.40
3548;DHT22;1788;49.400;11.092;2022-09-09T02:54:38;16.60;64.10
3548;DHT22;1788;49.400;11.092;2022-09-09T02:59:31;16.60;64.10
3548;DHT22;1788;49.400;11.092;2022-09-09T03:01:58;16.60;64.10
3548;DHT22;1788;49.400;11.092;2022-09-09T03:04:25;16.60;64.10
3548;DHT22;1788;49.400;11.092;2022-09-09T03:06:51;16.60;64.20
3548;DHT22;1788;49.400;11.092;2022-09-09T03:09:18;16.70;64.30
3548;DHT22;1788;49.400;11.092;2022-09-09T03:11:45;16.70;64.40
3548;DHT22;1788;49.400;11.092;2022-09-09T03:14:13;16.70;64.40
3548;DHT22;1788;49.400;11.092;2022-09-09T03:16:39;16.80;64.40
3548;DHT22;1788;49.400;11.092;2022-09-09T03:19:06;16.80;64.40
3548;DHT22;1788;49.400;11.092;2022-09-09T03:21:32;16.80;64.40
3548;DHT22;1788;49.400;11.092;2022-09-09T03:23:59;16.80;64.40
3548;DHT22;1788;49.400;11.092;2022-09-09T03:26:26;16.90;64.40
3548;DHT22;1788;49.400;11.092;2022-09-09T03:28:52;16.90;64.30
3548;DHT22;1788;49.400;11.092;2022-09-09T03:31:19;16.90;64.30
3548;DHT22;1788;49.400;11.092;2022-09-09T03:33:46;17.00;64.30
3548;DHT22;1788;49.400;11.092;2022-09-09T03:36:12;17.00;64.30
3548;DHT22;1788;49.400;11.092;2022-09-09T03:38:40;17.00;64.10
3548;DHT22;1788;49.400;11.092;2022-09-09T03:41:06;17.00;64.10
3548;DHT22;1788;49.400;11.092;2022-09-09T03:43:33;17.10;64.20
3548;DHT22;1788;49.400;11.092;2022-09-09T03:45:59;17.10;64.20
3548;DHT22;1788;49.400;11.092;2022-09-09T03:48:26;17.00;64.00
3548;DHT22;1788;49.400;11.092;2022-09-09T03:50:53;17.10;64.10
3548;DHT22;1788;49.400;11.092;2022-09-09T03:53:21;17.10;64.10
3548;DHT22;1788;49.400;11.092;2022-09-09T03:55:48;17.10;64.10
3548;DHT22;1788;49.400;11.092;2022-09-09T03:58:14;17.10;64.10
3548;DHT22;1788;49.400;11.092;2022-09-09T04:00:41;17.10;64.20
3548;DHT22;1788;49.400;11.092;2022-09-09T04:03:09;17.10;64.20
3548;DHT22;1788;49.400;11.092;2022-09-09T04:05:35;17.10;64.20
3548;DHT22;1788;49.400;11.092;2022-09-09T04:08:01;17.10;64.20
3548;DHT22;1788;49.400;11.092;2022-09-09T04:10:28;17.10;64.30
3548;DHT22;1788;49.400;11.092;2022-09-09T04:12:55;17.10;64.40
3548;DHT22;1788;49.400;11.092;2022-09-09T04:15:21;17.10;64.60
3548;DHT22;1788;49.400;11.092;2022-09-09T04:17:48;17.00;64.50
3548;DHT22;1788;49.400;11.092;2022-09-09T04:20:15;17.10;64.70
3548;DHT22;1788;49.400;11.092;2022-09-09T04:22:42;17.10;64.70
3548;DHT22;1788;49.400;11.092;2022-09-09T04:25:10;17.10;64.70
3548;DHT22;1788;49.400;11.092;2022-09-09T04:27:36;17.10;64.60
3548;DHT22;1788;49.400;11.092;2022-09-09T04:30:03;17.10;64.60
3548;DHT22;1788;49.400;11.092;2022-09-09T04:32:31;17.20;64.60
3548;DHT22;1788;49.400;11.092;2022-09-09T04:34:56;17.20;64.60
3548;DHT22;1788;49.400;11.092;2022-09-09T04:37:23;17.20;64.60
3548;DHT22;1788;49.400;11.092;2022-09-09T04:39:50;17.20;64.60
3548;DHT22;1788;49.400;11.092;2022-09-09T04:42:17;17.20;64.60
3548;DHT22;1788;49.400;11.092;2022-09-09T04:44:44;17.20;64.60
3548;DHT22;1788;49.400;11.092;2022-09-09T04:47:10;17.30;64.60
3548;DHT22;1788;49.400;11.092;2022-09-09T04:49:37;17.20;64.60
3548;DHT22;1788;49.400;11.092;2022-09-09T04:52:04;17.20;64.50
3548;DHT22;1788;49.400;11.092;2022-09-09T04:54:30;17.20;64.50
3548;DHT22;1788;49.400;11.092;2022-09-09T04:56:57;17.20;64.50
3548;DHT22;1788;49.400;11.092;2022-09-09T04:59:23;17.20;64.50
3548;DHT22;1788;49.400;11.092;2022-09-09T05:01:50;17.20;64.50
3548;DHT22;1788;49.400;11.092;2022-09-09T05:04:18;17.10;64.50
3548;DHT22;1788;49.400;11.092;2022-09-09T05:06:44;17.20;65.30
3548;DHT22;1788;49.400;11.092;2022-09-09T05:09:12;17.10;64.50
3548;DHT22;1788;49.400;11.092;2022-09-09T05:11:38;17.20;64.60
3548;DHT22;1788;49.400;11.092;2022-09-09T05:14:05;17.10;64.50
3548;DHT22;1788;49.400;11.092;2022-09-09T05:16:31;17.10;64.50
3548;DHT22;1788;49.400;11.092;2022-09-09T05:18:59;17.10;64.70
3548;DHT22;1788;49.400;11.092;2022-09-09T05:21:25;17.00;64.50
3548;DHT22;1788;49.400;11.092;2022-09-09T05:23:53;17.00;64.80
3548;DHT22;1788;49.400;11.092;2022-09-09T05:26:20;17.00;64.70
3548;DHT22;1788;49.400;11.092;2022-09-09T05:28:46;17.00;64.80
3548;DHT22;1788;49.400;11.092;2022-09-09T05:31:13;17.00;64.90
3548;DHT22;1788;49.400;11.092;2022-09-09T05:33:40;16.90;64.80
3548;DHT22;1788;49.400;11.092;2022-09-09T05:36:08;16.90;65.10
3548;DHT22;1788;49.400;11.092;2022-09-09T05:38:34;16.90;65.10
3548;DHT22;1788;49.400;11.092;2022-09-09T05:41:01;16.90;65.20
3548;DHT22;1788;49.400;11.092;2022-09-09T05:43:26;16.90;65.30
3548;DHT22;1788;49.400;11.092;2022-09-09T05:48:20;16.90;65.20
3548;DHT22;1788;49.400;11.092;2022-09-09T05:50:54;16.90;65.30
3548;DHT22;1788;49.400;11.092;2022-09-09T05:53:13;16.90;65.30
3548;DHT22;1788;49.400;11.092;2022-09-09T05:55:39;16.90;65.40
3548;DHT22;1788;49.400;11.092;2022-09-09T05:58:07;17.00;65.50
3548;DHT22;1788;49.400;11.092;2022-09-09T06:00:33;17.00;65.40
3548;DHT22;1788;49.400;11.092;2022-09-09T06:03:01;17.00;65.90
3548;DHT22;1788;49.400;11.092;2022-09-09T06:05:28;17.00;65.30
3548;DHT22;1788;49.400;11.092;2022-09-09T06:07:55;17.00;65.10
3548;DHT22;1788;49.400;11.092;2022-09-09T06:10:22;17.10;65.30
3548;DHT22;1788;49.400;11.092;2022-09-09T06:12:51;17.00;65.10
3548;DHT22;1788;49.400;11.092;2022-09-09T06:15:16;17.10;65.20
3548;DHT22;1788;49.400;11.092;2022-09-09T06:17:43;17.10;65.30
3548;DHT22;1788;49.400;11.092;2022-09-09T06:20:10;17.10;65.30
3548;DHT22;1788;49.400;11.092;2022-09-09T06:22:38;17.10;65.30
3548;DHT22;1788;49.400;11.092;2022-09-09T06:25:04;17.20;65.30
3548;DHT22;1788;49.400;11.092;2022-09-09T06:27:31;17.20;65.30
3548;DHT22;1788;49.400;11.092;2022-09-09T06:29:57;17.30;65.40
3548;DHT22;1788;49.400;11.092;2022-09-09T06:32:24;17.30;65.30
3548;DHT22;1788;49.400;11.092;2022-09-09T06:34:51;17.40;65.30
3548;DHT22;1788;49.400;11.092;2022-09-09T06:37:18;17.50;65.20
3548;DHT22;1788;49.400;11.092;2022-09-09T06:39:45;17.50;65.20
3548;DHT22;1788;49.400;11.092;2022-09-09T06:42:12;17.50;65.00
3548;DHT22;1788;49.400;11.092;2022-09-09T06:44:39;17.60;65.80
3548;DHT22;1788;49.400;11.092;2022-09-09T06:47:06;17.60;65.00
3548;DHT22;1788;49.400;11.092;2022-09-09T06:49:32;17.60;64.80
3548;DHT22;1788;49.400;11.092;2022-09-09T06:51:59;17.70;64.90
3548;DHT22;1788;49.400;11.092;2022-09-09T06:54:26;17.70;64.80
3548;DHT22;1788;49.400;11.092;2022-09-09T06:56:53;17.80;64.90
3548;DHT22;1788;49.400;11.092;2022-09-09T06:59:20;17.80;64.80
3548;DHT22;1788;49.400;11.092;2022-09-09T07:01:47;17.90;64.90
3548;DHT22;1788;49.400;11.092;2022-09-09T07:04:14;17.90;64.60
3548;DHT22;1788;49.400;11.092;2022-09-09T07:06:41;18.00;64.60
3548;DHT22;1788;49.400;11.092;2022-09-09T07:09:08;18.10;64.60
3548;DHT22;1788;49.400;11.092;2022-09-09T07:11:36;18.10;64.40
3548;DHT22;1788;49.400;11.092;2022-09-09T07:14:00;18.20;64.40
3548;DHT22;1788;49.400;11.092;2022-09-09T07:16:28;18.20;64.10
3548;DHT22;1788;49.400;11.092;2022-09-09T07:18:54;18.20;64.00
3548;DHT22;1788;49.400;11.092;2022-09-09T07:21:21;18.30;64.10
3548;DHT22;1788;49.400;11.092;2022-09-09T07:23:48;18.30;64.00
3548;DHT22;1788;49.400;11.092;2022-09-09T07:26:15;18.30;64.00
3548;DHT22;1788;49.400;11.092;2022-09-09T07:28:41;18.40;63.90
3548;DHT22;1788;49.400;11.092;2022-09-09T07:31:13;18.30;63.60
3548;DHT22;1788;49.400;11.092;2022-09-09T07:33:34;18.30;63.70
3548;DHT22;1788;49.400;11.092;2022-09-09T07:36:03;18.30;63.70
3548;DHT22;1788;49.400;11.092;2022-09-09T07:38:27;18.40;63.70
3548;DHT22;1788;49.400;11.092;2022-09-09T07:41:01;18.40;63.60
3548;DHT22;1788;49.400;11.092;2022-09-09T07:43:25;18.60;63.40
3548;DHT22;1788;49.400;11.092;2022-09-09T07:45:48;18.60;63.40
3548;DHT22;1788;49.400;11.092;2022-09-09T07:48:15;18.90;63.10
3548;DHT22;1788;49.400;11.092;2022-09-09T07:50:42;18.90;63.10
3548;DHT22;1788;49.400;11.092;2022-09-09T07:53:08;19.00;62.70
3548;DHT22;1788;49.400;11.092;2022-09-09T07:55:35;19.10;62.40
3548;DHT22;1788;49.400;11.092;2022-09-09T07:58:02;19.30;62.20
3548;DHT22;1788;49.400;11.092;2022-09-09T08:00:29;19.40;61.90
3548;DHT22;1788;49.400;11.092;2022-09-09T08:02:56;19.70;61.70
3548;DHT22;1788;49.400;11.092;2022-09-09T08:05:23;19.70;61.70
3548;DHT22;1788;49.400;11.092;2022-09-09T08:07:50;20.10;61.00
3548;DHT22;1788;49.400;11.092;2022-09-09T08:10:17;20.10;61.00
3548;DHT22;1788;49.400;11.092;2022-09-09T08:12:43;20.30;60.70
3548;DHT22;1788;49.400;11.092;2022-09-09T08:15:10;20.40;60.30
3548;DHT22;1788;49.400;11.092;2022-09-09T08:17:37;20.50;60.00
3548;DHT22;1788;49.400;11.092;2022-09-09T08:20:04;20.80;59.60
3548;DHT22;1788;49.400;11.092;2022-09-09T08:22:32;20.80;59.50
3548;DHT22;1788;49.400;11.092;2022-09-09T08:24:58;20.90;59.30
3548;DHT22;1788;49.400;11.092;2022-09-09T08:27:25;21.00;59.10
3548;DHT22;1788;49.400;11.092;2022-09-09T08:29:52;21.20;59.00
3548;DHT22;1788;49.400;11.092;2022-09-09T08:32:19;21.40;58.70
3548;DHT22;1788;49.400;11.092;2022-09-09T08:34:45;21.50;58.30
3548;DHT22;1788;49.400;11.092;2022-09-09T08:37:12;21.70;58.10
3548;DHT22;1788;49.400;11.092;2022-09-09T08:39:38;21.80;57.70
3548;DHT22;1788;49.400;11.092;2022-09-09T08:42:09;22.00;57.40
3548;DHT22;1788;49.400;11.092;2022-09-09T08:49:33;22.40;56.60
3548;DHT22;1788;49.400;11.092;2022-09-09T08:51:53;22.40;56.30
3548;DHT22;1788;49.400;11.092;2022-09-09T08:54:19;22.50;56.30
3548;DHT22;1788;49.400;11.092;2022-09-09T08:56:45;22.70;56.20
3548;DHT22;1788;49.400;11.092;2022-09-09T08:59:12;22.90;56.00
3548;DHT22;1788;49.400;11.092;2022-09-09T09:09:00;23.50;54.40
3548;DHT22;1788;49.400;11.092;2022-09-09T09:11:25;23.60;54.10
3548;DHT22;1788;49.400;11.092;2022-09-09T09:13:53;23.70;53.90
3548;DHT22;1788;49.400;11.092;2022-09-09T09:18:46;23.80;53.20
3548;DHT22;1788;49.400;11.092;2022-09-09T09:23:43;23.90;52.70
3548;DHT22;1788;49.400;11.092;2022-09-09T09:26:07;24.00;52.50
3548;DHT22;1788;49.400;11.092;2022-09-09T09:28:33;24.10;52.20
3548;DHT22;1788;49.400;11.092;2022-09-09T09:33:29;24.20;51.40
3548;DHT22;1788;49.400;11.092;2022-09-09T09:35:53;24.30;51.30
3548;DHT22;1788;49.400;11.092;2022-09-09T09:38:21;24.40;50.80
3548;DHT22;1788;49.400;11.092;2022-09-09T09:43:16;24.60;50.30
3548;DHT22;1788;49.400;11.092;2022-09-09T09:45:41;24.80;49.90
3548;DHT22;1788;49.400;11.092;2022-09-09T09:50:34;24.80;49.60
3548;DHT22;1788;49.400;11.092;2022-09-09T09:53:02;24.80;49.50
3548;DHT22;1788;49.400;11.092;2022-09-09T09:55:28;24.80;49.20
3548;DHT22;1788;49.400;11.092;2022-09-09T09:57:54;24.60;48.80
3548;DHT22;1788;49.400;11.092;2022-09-09T10:00:22;24.60;48.80
3548;DHT22;1788;49.400;11.092;2022-09-09T10:02:48;24.60;48.60
3548;DHT22;1788;49.400;11.092;2022-09-09T10:07:41;24.70;48.50
3548;DHT22;1788;49.400;11.092;2022-09-09T10:10:09;24.70;48.40
3548;DHT22;1788;49.400;11.092;2022-09-09T10:15:06;24.70;48.00
3548;DHT22;1788;49.400;11.092;2022-09-09T10:20:04;24.70;48.10
3548;DHT22;1788;49.400;11.092;2022-09-09T10:22:25;24.70;48.10
3548;DHT22;1788;49.400;11.092;2022-09-09T10:37:07;25.40;47.70
3548;DHT22;1788;49.400;11.092;2022-09-09T10:54:17;26.40;45.50
3548;DHT22;1788;49.400;11.092;2022-09-09T10:56:41;26.50;45.20
3548;DHT22;1788;49.400;11.092;2022-09-09T11:01:41;26.30;44.70
3548;DHT22;1788;49.400;11.092;2022-09-09T11:08:54;25.70;44.60
3548;DHT22;1788;49.400;11.092;2022-09-09T11:18:40;25.30;44.70
3548;DHT22;1788;49.400;11.092;2022-09-09T11:21:09;25.20;44.60
3548;DHT22;1788;49.400;11.092;2022-09-09T11:23:38;25.20;44.80
3548;DHT22;1788;49.400;11.092;2022-09-09T11:26:00;25.00;44.80
3548;DHT22;1788;49.400;11.092;2022-09-09T11:40:40;24.70;45.20
3548;DHT22;1788;49.400;11.092;2022-09-09T11:45:35;25.30;44.60
3548;DHT22;1788;49.400;11.092;2022-09-09T11:48:02;25.30;44.90
3548;DHT22;1788;49.400;11.092;2022-09-09T11:50:29;25.40;44.70
3548;DHT22;1788;49.400;11.092;2022-09-09T11:57:49;25.20;44.50
3548;DHT22;1788;49.400;11.092;2022-09-09T12:02:47;25.10;44.40
3548;DHT22;1788;49.400;11.092;2022-09-09T12:05:09;24.90;44.40
3548;DHT22;1788;49.400;11.092;2022-09-09T12:12:30;24.60;44.70
3548;DHT22;1788;49.400;11.092;2022-09-09T12:17:23;24.60;45.10
3548;DHT22;1788;49.400;11.092;2022-09-09T12:36:58;25.50;43.40
3548;DHT22;1788;49.400;11.092;2022-09-09T12:41:52;25.60;42.40
3548;DHT22;1788;49.400;11.092;2022-09-09T12:44:18;25.60;42.30
3548;DHT22;1788;49.400;11.092;2022-09-09T12:46:45;25.60;42.40
3548;DHT22;1788;49.400;11.092;2022-09-09T12:51:38;25.90;42.20
3548;DHT22;1788;49.400;11.092;2022-09-09T12:54:05;25.90;42.10
3548;DHT22;1788;49.400;11.092;2022-09-09T12:56:32;26.60;42.00
3548;DHT22;1788;49.400;11.092;2022-09-09T12:58:59;26.60;41.40
3548;DHT22;1788;49.400;11.092;2022-09-09T13:01:27;27.20;40.10
3548;DHT22;1788;49.400;11.092;2022-09-09T13:03:53;27.10;40.20
3548;DHT22;1788;49.400;11.092;2022-09-09T13:06:21;26.80;40.50
3548;DHT22;1788;49.400;11.092;2022-09-09T13:08:46;26.30;40.90
3548;DHT22;1788;49.400;11.092;2022-09-09T13:11:14;25.80;41.30
3548;DHT22;1788;49.400;11.092;2022-09-09T13:13:41;24.80;42.60
3548;DHT22;1788;49.400;11.092;2022-09-09T13:16:17;24.80;42.60
3548;DHT22;1788;49.400;11.092;2022-09-09T13:18:35;23.90;45.80
3548;DHT22;1788;49.400;11.092;2022-09-09T13:21:01;23.90;45.10
3548;DHT22;1788;49.400;11.092;2022-09-09T13:23:29;23.50;46.10
3548;DHT22;1788;49.400;11.092;2022-09-09T13:25:56;23.10;48.40
3548;DHT22;1788;49.400;11.092;2022-09-09T13:28:22;23.10;48.30
3548;DHT22;1788;49.400;11.092;2022-09-09T13:38:09;26.80;46.30
3548;DHT22;1788;49.400;11.092;2022-09-09T13:40:35;26.80;46.30
3548;DHT22;1788;49.400;11.092;2022-09-09T13:43:03;27.70;46.70
3548;DHT22;1788;49.400;11.092;2022-09-09T13:45:29;27.70;46.70
3548;DHT22;1788;49.400;11.092;2022-09-09T13:47:56;29.60;44.80
3548;DHT22;1788;49.400;11.092;2022-09-09T13:52:51;30.40;43.90
3548;DHT22;1788;49.400;11.092;2022-09-09T13:55:17;31.00;43.10
3548;DHT22;1788;49.400;11.092;2022-09-09T14:00:12;29.90;43.40
3548;DHT22;1788;49.400;11.092;2022-09-09T14:02:39;28.90;44.20
3548;DHT22;1788;49.400;11.092;2022-09-09T14:05:06;27.30;45.70
3548;DHT22;1788;49.400;11.092;2022-09-09T14:07:33;27.30;45.70
3548;DHT22;1788;49.400;11.092;2022-09-09T14:09:59;26.70;46.50
3548;DHT22;1788;49.400;11.092;2022-09-09T14:12:26;26.60;47.20
3548;DHT22;1788;49.400;11.092;2022-09-09T14:14:52;26.70;47.00
3548;DHT22;1788;49.400;11.092;2022-09-09T14:17:19;26.40;46.70
3548;DHT22;1788;49.400;11.092;2022-09-09T14:19:46;26.10;46.70
3548;DHT22;1788;49.400;11.092;2022-09-09T14:22:12;25.80;47.30
3548;DHT22;1788;49.400;11.092;2022-09-09T14:24:39;25.40;48.00
3548;DHT22;1788;49.400;11.092;2022-09-09T14:27:06;25.00;48.80
3548;DHT22;1788;49.400;11.092;2022-09-09T14:29:32;24.60;49.40
3548;DHT22;1788;49.400;11.092;2022-09-09T14:31:59;24.20;50.00
3548;DHT22;1788;49.400;11.092;2022-09-09T14:34:25;23.90;50.60
3548;DHT22;1788;49.400;11.092;2022-09-09T14:36:52;23.70;51.10
3548;DHT22;1788;49.400;11.092;2022-09-09T14:39:19;23.50;51.40
3548;DHT22;1788;49.400;11.092;2022-09-09T14:41:45;23.30;51.80
3548;DHT22;1788;49.400;11.092;2022-09-09T14:44:12;23.20;52.10
3548;DHT22;1788;49.400;11.092;2022-09-09T14:46:38;23.00;52.10
3548;DHT22;1788;49.400;11.092;2022-09-09T14:49:05;22.90;52.30
3548;DHT22;1788;49.400;11.092;2022-09-09T14:51:32;22.80;52.40
3548;DHT22;1788;49.400;11.092;2022-09-09T14:53:59;22.80;52.40
3548;DHT22;1788;49.400;11.092;2022-09-09T14:56:27;22.80;52.10
3548;DHT22;1788;49.400;11.092;2022-09-09T14:58:54;22.60;51.90
3548;DHT22;1788;49.400;11.092;2022-09-09T15:01:20;22.60;51.90
3548;DHT22;1788;49.400;11.092;2022-09-09T15:06:14;22.50;51.90
3548;DHT22;1788;49.400;11.092;2022-09-09T15:08:42;22.50;52.10
3548;DHT22;1788;49.400;11.092;2022-09-09T15:11:08;22.40;52.00
3548;DHT22;1788;49.400;11.092;2022-09-09T15:13:34;22.60;52.20
3548;DHT22;1788;49.400;11.092;2022-09-09T15:18:28;23.10;51.50
3548;DHT22;1788;49.400;11.092;2022-09-09T15:20:55;23.70;50.60
3548;DHT22;1788;49.400;11.092;2022-09-09T15:23:22;23.60;50.50
3548;DHT22;1788;49.400;11.092;2022-09-09T15:25:50;24.10;50.00
3548;DHT22;1788;49.400;11.092;2022-09-09T15:28:16;24.10;50.00
3548;DHT22;1788;49.400;11.092;2022-09-09T15:30:42;24.40;49.90
3548;DHT22;1788;49.400;11.092;2022-09-09T15:33:09;24.60;50.40
3548;DHT22;1788;49.400;11.092;2022-09-09T15:35:35;24.90;49.40
3548;DHT22;1788;49.400;11.092;2022-09-09T15:38:03;25.10;48.80
3548;DHT22;1788;49.400;11.092;2022-09-09T15:40:29;25.20;48.30
3548;DHT22;1788;49.400;11.092;2022-09-09T15:42:55;25.20;47.80
3548;DHT22;1788;49.400;11.092;2022-09-09T15:45:22;25.30;47.60
3548;DHT22;1788;49.400;11.092;2022-09-09T15:47:49;25.40;47.20
3548;DHT22;1788;49.400;11.092;2022-09-09T15:50:15;25.40;47.00
3548;DHT22;1788;49.400;11.092;2022-09-09T15:52:42;25.50;46.90
3548;DHT22;1788;49.400;11.092;2022-09-09T15:55:08;25.50;46.50
3548;DHT22;1788;49.400;11.092;2022-09-09T15:57:36;25.30;46.10
3548;DHT22;1788;49.400;11.092;2022-09-09T16:00:03;25.30;45.50
3548;DHT22;1788;49.400;11.092;2022-09-09T16:02:29;25.10;45.10
3548;DHT22;1788;49.400;11.092;2022-09-09T16:04:56;24.80;44.80
3548;DHT22;1788;49.400;11.092;2022-09-09T16:07:22;24.60;44.50
3548;DHT22;1788;49.400;11.092;2022-09-09T16:09:50;24.20;44.60
3548;DHT22;1788;49.400;11.092;2022-09-09T16:12:16;24.10;44.50
3548;DHT22;1788;49.400;11.092;2022-09-09T16:14:43;24.00;44.40
3548;DHT22;1788;49.400;11.092;2022-09-09T16:17:09;23.80;44.40
3548;DHT22;1788;49.400;11.092;2022-09-09T16:19:38;23.40;44.50
3548;DHT22;1788;49.400;11.092;2022-09-09T16:22:05;23.40;44.50
3548;DHT22;1788;49.400;11.092;2022-09-09T16:24:32;23.30;44.90
3548;DHT22;1788;49.400;11.092;2022-09-09T16:26:58;23.20;44.80
3548;DHT22;1788;49.400;11.092;2022-09-09T16:29:25;23.30;44.90
3548;DHT22;1788;49.400;11.092;2022-09-09T16:31:52;23.50;45.00
3548;DHT22;1788;49.400;11.092;2022-09-09T16:34:19;23.70;45.00
3548;DHT22;1788;49.400;11.092;2022-09-09T16:36:46;23.90;44.90
3548;DHT22;1788;49.400;11.092;2022-09-09T16:41:42;24.30;44.40
3548;DHT22;1788;49.400;11.092;2022-09-09T16:44:09;24.20;44.10
3548;DHT22;1788;49.400;11.092;2022-09-09T16:46:37;24.30;44.10
3548;DHT22;1788;49.400;11.092;2022-09-09T16:49:03;24.30;44.10
3548;DHT22;1788;49.400;11.092;2022-09-09T16:56:24;24.00;44.10
3548;DHT22;1788;49.400;11.092;2022-09-09T16:58:50;23.90;44.10
3548;DHT22;1788;49.400;11.092;2022-09-09T17:01:17;23.70;44.40
3548;DHT22;1788;49.400;11.092;2022-09-09T17:03:43;23.70;44.40
3548;DHT22;1788;49.400;11.092;2022-09-09T17:06:12;23.50;44.80
3548;DHT22;1788;49.400;11.092;2022-09-09T17:08:38;23.40;44.30
3548;DHT22;1788;49.400;11.092;2022-09-09T17:13:33;23.10;44.60
3548;DHT22;1788;49.400;11.092;2022-09-09T17:16:03;23.10;44.60
3548;DHT22;1788;49.400;11.092;2022-09-09T17:18:28;23.00;44.90
3548;DHT22;1788;49.400;11.092;2022-09-09T17:20:55;23.00;45.40
3548;DHT22;1788;49.400;11.092;2022-09-09T17:23:22;23.00;45.00
3548;DHT22;1788;49.400;11.092;2022-09-09T17:28:15;22.80;45.00
3548;DHT22;1788;49.400;11.092;2022-09-09T17:30:43;22.70;45.40
3548;DHT22;1788;49.400;11.092;2022-09-09T17:33:10;22.70;45.40
3548;DHT22;1788;49.400;11.092;2022-09-09T17:35:37;22.60;45.50
3548;DHT22;1788;49.400;11.092;2022-09-09T17:38:03;22.60;45.80
3548;DHT22;1788;49.400;11.092;2022-09-09T17:40:30;22.50;45.90
3548;DHT22;1788;49.400;11.092;2022-09-09T17:42:57;22.40;46.10
3548;DHT22;1788;49.400;11.092;2022-09-09T17:45:24;22.40;46.20
3548;DHT22;1788;49.400;11.092;2022-09-09T17:47:50;22.30;46.40
3548;DHT22;1788;49.400;11.092;2022-09-09T17:50:17;22.20;46.40
3548;DHT22;1788;49.400;11.092;2022-09-09T17:52:44;22.10;46.40
3548;DHT22;1788;49.400;11.092;2022-09-09T17:55:12;22.00;46.70
3548;DHT22;1788;49.400;11.092;2022-09-09T17:57:38;22.00;46.70
3548;DHT22;1788;49.400;11.092;2022-09-09T18:00:05;22.00;47.00
3548;DHT22;1788;49.400;11.092;2022-09-09T18:02:31;22.00;47.40
3548;DHT22;1788;49.400;11.092;2022-09-09T18:04:59;22.00;48.00
3548;DHT22;1788;49.400;11.092;2022-09-09T18:07:26;22.00;48.50
3548;DHT22;1788;49.400;11.092;2022-09-09T18:09:52;21.90;48.90
3548;DHT22;1788;49.400;11.092;2022-09-09T18:12:19;21.80;49.50
3548;DHT22;1788;49.400;11.092;2022-09-09T18:14:46;21.80;49.50
3548;DHT22;1788;49.400;11.092;2022-09-09T18:17:13;21.80;49.90
3548;DHT22;1788;49.400;11.092;2022-09-09T18:19:39;21.70;50.20
3548;DHT22;1788;49.400;11.092;2022-09-09T18:22:06;21.70;50.60
3548;DHT22;1788;49.400;11.092;2022-09-09T18:24:33;21.60;51.20
3548;DHT22;1788;49.400;11.092;2022-09-09T18:27:00;21.60;51.20
3548;DHT22;1788;49.400;11.092;2022-09-09T18:29:27;21.50;51.60
3548;DHT22;1788;49.400;11.092;2022-09-09T18:31:54;21.50;51.60
3548;DHT22;1788;49.400;11.092;2022-09-09T18:34:21;21.30;51.90
3548;DHT22;1788;49.400;11.092;2022-09-09T18:36:49;21.30;51.80
3548;DHT22;1788;49.400;11.092;2022-09-09T18:39:16;21.10;51.80
3548;DHT22;1788;49.400;11.092;2022-09-09T18:41:43;20.90;51.70
3548;DHT22;1788;49.400;11.092;2022-09-09T18:46:35;20.00;52.50
3548;DHT22;1788;49.400;11.092;2022-09-09T18:49:02;19.90;52.50
3548;DHT22;1788;49.400;11.092;2022-09-09T18:51:29;19.60;53.80
3548;DHT22;1788;49.400;11.092;2022-09-09T18:53:56;19.60;53.70
3548;DHT22;1788;49.400;11.092;2022-09-09T18:56:22;19.60;54.10
3548;DHT22;1788;49.400;11.092;2022-09-09T19:01:15;19.50;54.80
3548;DHT22;1788;49.400;11.092;2022-09-09T19:03:43;19.50;55.50
3548;DHT22;1788;49.400;11.092;2022-09-09T19:06:11;19.40;55.40
3548;DHT22;1788;49.400;11.092;2022-09-09T19:08:37;19.40;56.00
3548;DHT22;1788;49.400;11.092;2022-09-09T19:11:04;19.40;56.00
3548;DHT22;1788;49.400;11.092;2022-09-09T19:13:31;19.40;57.00
3548;DHT22;1788;49.400;11.092;2022-09-09T19:18:24;19.30;56.70
3548;DHT22;1788;49.400;11.092;2022-09-09T19:20:51;19.30;56.90
3548;DHT22;1788;49.400;11.092;2022-09-09T19:23:17;19.30;57.10
3548;DHT22;1788;49.400;11.092;2022-09-09T19:25:45;19.20;57.40
3548;DHT22;1788;49.400;11.092;2022-09-09T19:28:11;19.20;57.40
3548;DHT22;1788;49.400;11.092;2022-09-09T19:30:39;19.20;57.80
3548;DHT22;1788;49.400;11.092;2022-09-09T19:33:05;19.20;57.80
3548;DHT22;1788;49.400;11.092;2022-09-09T19:35:32;19.10;57.90
3548;DHT22;1788;49.400;11.092;2022-09-09T19:37:58;19.10;58.10
3548;DHT22;1788;49.400;11.092;2022-09-09T19:40:25;19.10;58.30
3548;DHT22;1788;49.400;11.092;2022-09-09T19:42:52;19.10;58.40
3548;DHT22;1788;49.400;11.092;2022-09-09T19:45:18;19.00;58.50
3548;DHT22;1788;49.400;11.092;2022-09-09T19:47:45;19.00;58.70